createdAt,value
2019-06-20T00:00:02.792Z,19.1
2019-06-20T00:15:11.980Z,18.5
2019-06-20T00:30:04.493Z,18.3
2019-06-20T00:45:11.293Z,17.6
2019-06-20T01:00:06.447Z,17.9
2019-06-20T01:15:07.849Z,17.9
2019-06-20T01:30:08.307Z,17.9
2019-06-20T01:45:03.635Z,18
2019-06-20T02:00:06.709Z,17.9
2019-06-20T02:15:03.810Z,17.8
2019-06-20T02:30:08.794Z,17.7
2019-06-20T02:45:12.505Z,17.6
2019-06-20T03:00:08.065Z,17.5
2019-06-20T03:15:07.063Z,17.5
2019-06-20T03:30:07.830Z,17.5
2019-06-20T03:45:12.533Z,17.5
2019-06-20T04:00:09.746Z,17.6
2019-06-20T04:15:19.265Z,17.7
2019-06-20T04:30:10.644Z,17.7
2019-06-20T04:45:08.845Z,17.8
2019-06-20T05:00:11.468Z,17.7
2019-06-20T05:15:05.657Z,17.7
2019-06-20T05:30:08.479Z,17.9
2019-06-20T05:45:13.214Z,18.3
2019-06-20T06:00:08.333Z,18.5
2019-06-20T06:15:07.538Z,18.7
2019-06-20T06:30:13.982Z,18.7
2019-06-20T06:45:06.882Z,19.1
2019-06-20T07:00:11.389Z,20.2
2019-06-20T07:15:11.430Z,20.9
2019-06-20T07:30:11.474Z,21.7
2019-06-20T07:45:11.528Z,22.2
2019-06-20T08:00:12.294Z,22.4
2019-06-20T08:15:16.328Z,22.4
2019-06-20T08:30:11.903Z,22.4
2019-06-20T08:45:12.137Z,22.2
2019-06-20T09:00:11.991Z,22.2
2019-06-20T09:15:12.024Z,22.5
2019-06-20T09:30:12.579Z,22.2
2019-06-20T09:45:12.081Z,22.8
2019-06-20T10:00:12.147Z,23.5
2019-06-20T10:15:12.205Z,22.8
2019-06-20T10:30:14.990Z,22.7
2019-06-20T10:45:12.358Z,22.6
2019-06-20T11:00:12.346Z,22.6
2019-06-20T11:15:12.435Z,21.9
2019-06-20T11:30:12.426Z,21.4
2019-06-20T11:45:12.526Z,20.9
2019-06-20T12:00:12.504Z,20.4
2019-06-20T12:15:12.555Z,20.4
2019-06-20T12:30:12.667Z,20.2
2019-06-20T12:45:12.622Z,20
2019-06-20T13:00:12.782Z,19.8
2019-06-20T13:15:12.736Z,19.5
2019-06-20T13:30:12.953Z,19.4
2019-06-20T13:45:02.868Z,19
2019-06-20T14:00:02.931Z,18.5
2019-06-20T14:15:04.010Z,18.6
2019-06-20T14:30:04.201Z,19.4
2019-06-20T14:45:04.144Z,19.4
2019-06-20T15:00:04.138Z,19.8
2019-06-20T15:15:04.305Z,20
2019-06-20T15:30:04.305Z,20.9
2019-06-20T15:45:04.345Z,20.7
2019-06-20T16:00:04.305Z,20.5
2019-06-20T16:15:04.354Z,20.5
2019-06-20T16:30:04.680Z,20.7
2019-06-20T16:45:04.436Z,20.5
2019-06-20T17:00:04.568Z,20.4
2019-06-20T17:15:04.595Z,20.2
2019-06-20T17:30:04.566Z,20.1
2019-06-20T17:45:04.628Z,20.3
2019-06-20T18:00:04.656Z,20.1
2019-06-20T18:15:04.786Z,20.4
2019-06-20T18:30:04.806Z,20.1
2019-06-20T18:45:04.954Z,19.7
2019-06-20T19:00:04.976Z,19.2
2019-06-20T19:15:04.863Z,19
2019-06-20T19:30:04.950Z,18.5
2019-06-20T19:45:05.010Z,18.3
2019-06-20T20:00:05.084Z,18
2019-06-20T20:15:05.511Z,17.9
2019-06-20T20:30:05.042Z,17.7
2019-06-20T20:45:05.153Z,17.4
2019-06-20T21:00:05.373Z,17.2
2019-06-20T21:15:05.208Z,17.1
2019-06-20T21:30:05.251Z,17
2019-06-20T21:45:05.362Z,16.8
2019-06-20T22:00:05.541Z,16.6
2019-06-20T22:15:05.371Z,16.5
2019-06-20T22:30:05.412Z,16.1
2019-06-20T22:45:07.378Z,16
2019-06-20T23:00:05.499Z,16
2019-06-20T23:15:05.587Z,15.9
2019-06-20T23:30:05.718Z,15.9
2019-06-20T23:45:05.614Z,15.9
